EXS32VA EGCC-LDDU
Flight info
| Callsign | EXS32VA |
|---|---|
| Flight time | 2h 33m |
| Altitude | 35000 |
| Route | SONEX L975 DESIG L603 DOLAS DCT NAVPI DCT LARAS DCT BUDIP DCT DOJOH DCT DODEN DCT NEGIX DCT DINKU M867 XERUM DCT BAVAX DCT RADIZ DCT ARNOS DCT GISER DCT SIPAL |
| Aircraft | A21N/M-SDE2E3FGHIRWXY/LB1 |
Departure
| Time | 2026-05-07 18:18 |
|---|---|
| Airport | Manchester Airport (EGCC) |
Arrival
| Time | 2026-05-07 20:52 |
|---|---|
| Airport | Dubrovnik Ruđer Bošković Airport (LDDU) |
| Time | Latitude | Longitude | Altitude | Speed | Heading |
|---|---|---|---|---|---|
| 2026-05-07 17:49 | 53.36749 | -2.28397 | 258 ft | 0 kts | 135° |
| 2026-05-07 18:07 | 53.36755 | -2.28408 | 258 ft | 3 kts | 140° |
| 2026-05-07 18:07 | 53.36774 | -2.28429 | 258 ft | 3 kts | 161° |
| 2026-05-07 18:07 | 53.36796 | -2.28436 | 258 ft | 3 kts | 185° |
| 2026-05-07 18:07 | 53.36817 | -2.28427 | 258 ft | 3 kts | 219° |
| 2026-05-07 18:08 | 53.36822 | -2.28421 | 258 ft | 0 kts | 225° |
| 2026-05-07 18:10 | 53.36807 | -2.28445 | 258 ft | 5 kts | 225° |
| 2026-05-07 18:11 | 53.36774 | -2.28500 | 258 ft | 8 kts | 224° |
| 2026-05-07 18:11 | 53.36746 | -2.28544 | 258 ft | 9 kts | 223° |
| 2026-05-07 18:11 | 53.36678 | -2.28654 | 258 ft | 11 kts | 224° |
| 2026-05-07 18:11 | 53.36639 | -2.28755 | 258 ft | 10 kts | 243° |
| 2026-05-07 18:12 | 53.36579 | -2.28758 | 258 ft | 11 kts | 135° |
| 2026-05-07 18:12 | 53.36515 | -2.28651 | 258 ft | 15 kts | 134° |
| 2026-05-07 18:12 | 53.36446 | -2.28534 | 258 ft | 14 kts | 135° |
| 2026-05-07 18:12 | 53.36358 | -2.28470 | 258 ft | 14 kts | 160° |
| 2026-05-07 18:13 | 53.36282 | -2.28364 | 258 ft | 14 kts | 134° |
| 2026-05-07 18:13 | 53.36213 | -2.28247 | 258 ft | 14 kts | 135° |
| 2026-05-07 18:13 | 53.36141 | -2.28128 | 258 ft | 15 kts | 135° |
| 2026-05-07 18:13 | 53.36065 | -2.28010 | 258 ft | 16 kts | 138° |
| 2026-05-07 18:14 | 53.35985 | -2.27895 | 258 ft | 15 kts | 143° |
| 2026-05-07 18:14 | 53.35888 | -2.27844 | 258 ft | 15 kts | 166° |
| 2026-05-07 18:14 | 53.35807 | -2.27723 | 254 ft | 16 kts | 131° |
| 2026-05-07 18:14 | 53.35711 | -2.27626 | 251 ft | 13 kts | 156° |
| 2026-05-07 18:15 | 53.35641 | -2.27551 | 249 ft | 13 kts | 141° |
| 2026-05-07 18:15 | 53.35577 | -2.27465 | 248 ft | 7 kts | 140° |
| 2026-05-07 18:15 | 53.35575 | -2.27462 | 248 ft | 0 kts | 140° |
| 2026-05-07 18:16 | 53.35528 | -2.27398 | 250 ft | 19 kts | 141° |
| 2026-05-07 18:16 | 53.35420 | -2.27254 | 249 ft | 19 kts | 141° |
| 2026-05-07 18:17 | 53.35344 | -2.27186 | 247 ft | 19 kts | 175° |
| 2026-05-07 18:17 | 53.35209 | -2.27230 | 236 ft | 21 kts | 191° |
| 2026-05-07 18:17 | 53.35095 | -2.27268 | 231 ft | 27 kts | 191° |
| 2026-05-07 18:17 | 53.34916 | -2.27517 | 226 ft | 53 kts | 231° |
| 2026-05-07 18:18 | 53.34549 | -2.28277 | 232 ft | 115 kts | 231° |
| 2026-05-07 18:18 | 53.33903 | -2.29603 | 235 ft | 175 kts | 231° |
| 2026-05-07 18:18 | 53.33069 | -2.31295 | 371 ft | 206 kts | 230° |
| 2026-05-07 18:18 | 53.32165 | -2.33241 | 913 ft | 210 kts | 238° |
| 2026-05-07 18:19 | 53.31648 | -2.35508 | 1687 ft | 212 kts | 264° |
| 2026-05-07 18:19 | 53.31876 | -2.37947 | 2316 ft | 221 kts | 294° |
| 2026-05-07 18:19 | 53.32922 | -2.39920 | 2719 ft | 237 kts | 331° |
| 2026-05-07 18:19 | 53.34463 | -2.40979 | 3388 ft | 242 kts | 343° |
| 2026-05-07 18:20 | 53.36095 | -2.41810 | 4115 ft | 248 kts | 345° |
| 2026-05-07 18:20 | 53.37779 | -2.42646 | 4767 ft | 257 kts | 344° |
| 2026-05-07 18:20 | 53.39521 | -2.43531 | 4965 ft | 263 kts | 343° |
| 2026-05-07 18:20 | 53.41259 | -2.44442 | 5049 ft | 266 kts | 342° |
| 2026-05-07 18:21 | 53.43062 | -2.45275 | 5519 ft | 271 kts | 352° |
| 2026-05-07 18:21 | 53.44930 | -2.45114 | 6290 ft | 271 kts | 18° |
| 2026-05-07 18:21 | 53.46521 | -2.43495 | 7022 ft | 270 kts | 49° |
| 2026-05-07 18:21 | 53.47431 | -2.40764 | 7661 ft | 272 kts | 75° |
| 2026-05-07 18:22 | 53.47827 | -2.37643 | 8333 ft | 275 kts | 81° |
| 2026-05-07 18:22 | 53.48024 | -2.35535 | 8767 ft | 277 kts | 82° |
| 2026-05-07 18:22 | 53.48415 | -2.31229 | 9642 ft | 281 kts | 82° |
| 2026-05-07 18:22 | 53.48720 | -2.27968 | 10297 ft | 284 kts | 82° |
| 2026-05-07 18:23 | 53.49036 | -2.24674 | 10968 ft | 287 kts | 82° |
| 2026-05-07 18:23 | 53.49372 | -2.21353 | 11641 ft | 290 kts | 81° |
| 2026-05-07 18:23 | 53.49723 | -2.17995 | 12298 ft | 292 kts | 81° |
| 2026-05-07 18:23 | 53.50078 | -2.14621 | 12955 ft | 295 kts | 81° |
| 2026-05-07 18:24 | 53.50433 | -2.11248 | 13563 ft | 298 kts | 81° |
| 2026-05-07 18:24 | 53.50799 | -2.07756 | 13923 ft | 312 kts | 81° |
| 2026-05-07 18:24 | 53.51185 | -2.04063 | 14169 ft | 329 kts | 81° |
| 2026-05-07 18:24 | 53.51590 | -2.00178 | 14421 ft | 345 kts | 81° |
| 2026-05-07 18:25 | 53.52014 | -1.96109 | 14666 ft | 361 kts | 81° |
| 2026-05-07 18:25 | 53.52356 | -1.91836 | 14908 ft | 376 kts | 89° |
| 2026-05-07 18:25 | 53.52193 | -1.87415 | 15225 ft | 385 kts | 100° |
| 2026-05-07 18:25 | 53.51675 | -1.82923 | 15458 ft | 398 kts | 104° |
| 2026-05-07 18:26 | 53.50967 | -1.78373 | 15904 ft | 403 kts | 107° |
| 2026-05-07 18:26 | 53.50176 | -1.73900 | 16473 ft | 405 kts | 108° |
| 2026-05-07 18:26 | 53.49337 | -1.69370 | 16998 ft | 408 kts | 108° |
| 2026-05-07 18:26 | 53.48485 | -1.64806 | 17493 ft | 411 kts | 108° |
| 2026-05-07 18:27 | 53.47633 | -1.60202 | 17973 ft | 415 kts | 108° |
| 2026-05-07 18:27 | 53.46782 | -1.55554 | 18471 ft | 417 kts | 108° |
| 2026-05-07 18:27 | 53.45933 | -1.50872 | 18926 ft | 420 kts | 108° |
| 2026-05-07 18:27 | 53.45084 | -1.46154 | 19367 ft | 423 kts | 108° |
| 2026-05-07 18:28 | 53.44231 | -1.41415 | 19813 ft | 426 kts | 108° |
| 2026-05-07 18:28 | 53.43370 | -1.36643 | 20250 ft | 429 kts | 108° |
| 2026-05-07 18:28 | 53.42502 | -1.31834 | 20661 ft | 431 kts | 108° |
| 2026-05-07 18:28 | 53.41628 | -1.27006 | 21070 ft | 434 kts | 108° |
| 2026-05-07 18:29 | 53.40750 | -1.22154 | 21475 ft | 437 kts | 108° |
| 2026-05-07 18:29 | 53.39871 | -1.17319 | 21879 ft | 439 kts | 108° |
| 2026-05-07 18:29 | 53.38974 | -1.12406 | 22267 ft | 442 kts | 108° |
| 2026-05-07 18:29 | 53.38071 | -1.07469 | 22641 ft | 444 kts | 108° |
| 2026-05-07 18:30 | 53.37158 | -1.02495 | 23007 ft | 447 kts | 108° |
| 2026-05-07 18:30 | 53.36239 | -0.97502 | 23372 ft | 450 kts | 108° |
| 2026-05-07 18:30 | 53.35313 | -0.92489 | 23720 ft | 452 kts | 108° |
| 2026-05-07 18:30 | 53.34380 | -0.87446 | 24044 ft | 454 kts | 108° |
| 2026-05-07 18:31 | 53.33440 | -0.82382 | 24374 ft | 457 kts | 108° |
| 2026-05-07 18:31 | 53.32492 | -0.77288 | 24704 ft | 459 kts | 108° |
| 2026-05-07 18:31 | 53.31543 | -0.72197 | 25026 ft | 460 kts | 108° |
| 2026-05-07 18:31 | 53.30585 | -0.67068 | 25340 ft | 462 kts | 108° |
| 2026-05-07 18:32 | 53.29636 | -0.62005 | 25627 ft | 463 kts | 108° |
| 2026-05-07 18:32 | 53.28670 | -0.56870 | 26004 ft | 463 kts | 108° |
| 2026-05-07 18:32 | 53.27705 | -0.51752 | 26410 ft | 461 kts | 108° |
| 2026-05-07 18:32 | 53.26742 | -0.46662 | 26792 ft | 460 kts | 108° |
| 2026-05-07 18:33 | 53.25776 | -0.41568 | 27151 ft | 459 kts | 108° |
| 2026-05-07 18:33 | 53.24812 | -0.36499 | 27512 ft | 458 kts | 108° |
| 2026-05-07 18:33 | 53.23845 | -0.31426 | 27862 ft | 456 kts | 109° |
| 2026-05-07 18:33 | 53.22881 | -0.26387 | 28203 ft | 456 kts | 109° |
| 2026-05-07 18:34 | 53.21915 | -0.21351 | 28555 ft | 454 kts | 109° |
| 2026-05-07 18:34 | 53.20952 | -0.16334 | 28871 ft | 453 kts | 109° |
| 2026-05-07 18:34 | 53.19989 | -0.11334 | 29167 ft | 453 kts | 109° |
| 2026-05-07 18:34 | 53.19037 | -0.06407 | 29467 ft | 452 kts | 109° |
| 2026-05-07 18:35 | 53.18072 | -0.01425 | 29769 ft | 450 kts | 109° |
| 2026-05-07 18:35 | 53.17109 | 0.03536 | 30042 ft | 450 kts | 109° |
| 2026-05-07 18:35 | 53.16145 | 0.08487 | 30341 ft | 447 kts | 109° |
| 2026-05-07 18:35 | 53.15185 | 0.13408 | 30669 ft | 445 kts | 109° |
| 2026-05-07 18:36 | 53.14228 | 0.18299 | 30901 ft | 445 kts | 109° |
| 2026-05-07 18:36 | 53.13266 | 0.23208 | 31100 ft | 445 kts | 109° |
| 2026-05-07 18:36 | 53.12303 | 0.28113 | 31301 ft | 445 kts | 109° |
| 2026-05-07 18:36 | 53.11339 | 0.33005 | 31520 ft | 444 kts | 109° |
| 2026-05-07 18:37 | 53.10375 | 0.37879 | 31708 ft | 444 kts | 109° |
| 2026-05-07 18:37 | 53.09406 | 0.42766 | 31894 ft | 444 kts | 109° |
| 2026-05-07 18:37 | 53.08448 | 0.47587 | 32087 ft | 444 kts | 109° |
| 2026-05-07 18:37 | 53.07477 | 0.52458 | 32286 ft | 443 kts | 109° |
| 2026-05-07 18:38 | 53.06506 | 0.57321 | 32452 ft | 443 kts | 109° |
| 2026-05-07 18:38 | 53.05533 | 0.62183 | 32612 ft | 443 kts | 109° |
| 2026-05-07 18:38 | 53.04557 | 0.67047 | 32782 ft | 443 kts | 109° |
| 2026-05-07 18:38 | 53.03581 | 0.71900 | 32948 ft | 442 kts | 109° |
| 2026-05-07 18:39 | 53.02601 | 0.76760 | 33064 ft | 443 kts | 109° |
| 2026-05-07 18:39 | 53.00635 | 0.86473 | 33082 ft | 443 kts | 109° |
| 2026-05-07 18:40 | 52.98665 | 0.96159 | 33082 ft | 443 kts | 109° |
| 2026-05-07 18:40 | 52.96621 | 1.05797 | 33090 ft | 443 kts | 111° |
| 2026-05-07 18:41 | 52.94456 | 1.15356 | 33091 ft | 443 kts | 111° |
| 2026-05-07 18:41 | 52.92268 | 1.24898 | 33092 ft | 443 kts | 111° |
| 2026-05-07 18:42 | 52.90096 | 1.34386 | 33097 ft | 443 kts | 111° |
| 2026-05-07 18:42 | 52.87905 | 1.43953 | 33101 ft | 443 kts | 111° |
| 2026-05-07 18:43 | 52.85717 | 1.53481 | 33102 ft | 444 kts | 111° |
| 2026-05-07 18:43 | 52.83511 | 1.63042 | 33101 ft | 445 kts | 111° |
| 2026-05-07 18:44 | 52.81297 | 1.72587 | 33102 ft | 445 kts | 111° |
| 2026-05-07 18:44 | 52.79071 | 1.82143 | 33102 ft | 445 kts | 111° |
| 2026-05-07 18:45 | 52.76837 | 1.91693 | 33102 ft | 446 kts | 112° |
| 2026-05-07 18:45 | 52.74592 | 2.01241 | 33101 ft | 446 kts | 112° |
| 2026-05-07 18:46 | 52.72337 | 2.10797 | 33101 ft | 447 kts | 112° |
| 2026-05-07 18:46 | 52.70088 | 2.20285 | 33102 ft | 447 kts | 112° |
| 2026-05-07 18:47 | 52.67821 | 2.29812 | 33099 ft | 447 kts | 112° |
| 2026-05-07 18:47 | 52.65540 | 2.39346 | 33102 ft | 447 kts | 112° |
| 2026-05-07 18:48 | 52.63251 | 2.48876 | 33102 ft | 447 kts | 112° |
| 2026-05-07 18:48 | 52.60954 | 2.58389 | 33100 ft | 447 kts | 112° |
| 2026-05-07 18:49 | 52.58652 | 2.67886 | 33098 ft | 447 kts | 112° |
| 2026-05-07 18:49 | 52.56340 | 2.77379 | 33102 ft | 447 kts | 112° |
| 2026-05-07 18:50 | 52.53702 | 2.86593 | 33104 ft | 445 kts | 120° |
| 2026-05-07 18:50 | 52.50582 | 2.95307 | 33101 ft | 445 kts | 122° |
| 2026-05-07 18:51 | 52.47340 | 3.03985 | 33101 ft | 446 kts | 122° |
| 2026-05-07 18:51 | 52.44091 | 3.12622 | 33102 ft | 446 kts | 122° |
| 2026-05-07 18:52 | 52.40838 | 3.21277 | 33100 ft | 446 kts | 122° |
| 2026-05-07 18:52 | 52.37584 | 3.29926 | 33100 ft | 446 kts | 122° |
| 2026-05-07 18:53 | 52.34321 | 3.38579 | 33100 ft | 446 kts | 122° |
| 2026-05-07 18:53 | 52.31053 | 3.47211 | 33099 ft | 447 kts | 122° |
| 2026-05-07 18:54 | 52.27775 | 3.55845 | 33102 ft | 447 kts | 122° |
| 2026-05-07 18:54 | 52.24496 | 3.64449 | 33100 ft | 447 kts | 123° |
| 2026-05-07 18:55 | 52.21190 | 3.73088 | 33092 ft | 448 kts | 123° |
| 2026-05-07 18:55 | 52.17909 | 3.81639 | 33083 ft | 448 kts | 123° |
| 2026-05-07 18:56 | 52.14597 | 3.90244 | 33082 ft | 448 kts | 123° |
| 2026-05-07 18:56 | 52.11275 | 3.98850 | 33082 ft | 449 kts | 123° |
| 2026-05-07 18:57 | 52.07944 | 4.07440 | 33082 ft | 449 kts | 123° |
| 2026-05-07 18:57 | 52.04604 | 4.16021 | 33079 ft | 449 kts | 123° |
| 2026-05-07 18:58 | 52.01263 | 4.24577 | 33073 ft | 449 kts | 123° |
| 2026-05-07 18:58 | 51.97910 | 4.33143 | 33073 ft | 449 kts | 123° |
| 2026-05-07 18:59 | 51.94556 | 4.41680 | 33073 ft | 449 kts | 123° |
| 2026-05-07 18:59 | 51.91193 | 4.50215 | 33073 ft | 449 kts | 123° |
| 2026-05-07 19:00 | 51.87843 | 4.58685 | 33073 ft | 449 kts | 123° |
| 2026-05-07 19:00 | 51.84470 | 4.67183 | 33073 ft | 449 kts | 123° |
| 2026-05-07 19:01 | 51.81140 | 4.75749 | 33073 ft | 449 kts | 122° |
| 2026-05-07 19:01 | 51.77884 | 4.84356 | 33072 ft | 449 kts | 122° |
| 2026-05-07 19:02 | 51.74618 | 4.92986 | 33073 ft | 449 kts | 122° |
| 2026-05-07 19:02 | 51.71896 | 5.00132 | 33073 ft | 449 kts | 122° |
| 2026-05-07 19:03 | 51.68611 | 5.08711 | 33072 ft | 449 kts | 122° |
| 2026-05-07 19:03 | 51.65317 | 5.17272 | 33072 ft | 449 kts | 122° |
| 2026-05-07 19:04 | 51.62039 | 5.25770 | 33073 ft | 449 kts | 122° |
| 2026-05-07 19:04 | 51.58735 | 5.34305 | 33072 ft | 449 kts | 122° |
| 2026-05-07 19:05 | 51.55428 | 5.42815 | 33073 ft | 449 kts | 122° |
| 2026-05-07 19:05 | 51.52114 | 5.51325 | 33073 ft | 449 kts | 122° |
| 2026-05-07 19:06 | 51.48790 | 5.59833 | 33073 ft | 449 kts | 123° |
| 2026-05-07 19:06 | 51.43804 | 5.72536 | 33073 ft | 449 kts | 123° |
| 2026-05-07 19:07 | 51.40481 | 5.80965 | 33073 ft | 449 kts | 123° |
| 2026-05-07 19:07 | 51.37374 | 5.89645 | 33074 ft | 449 kts | 116° |
| 2026-05-07 19:08 | 51.34736 | 5.98711 | 33072 ft | 449 kts | 115° |
| 2026-05-07 19:08 | 51.32202 | 6.07778 | 33073 ft | 449 kts | 114° |
| 2026-05-07 19:09 | 51.29656 | 6.16896 | 33073 ft | 449 kts | 114° |
| 2026-05-07 19:09 | 51.27085 | 6.26023 | 33073 ft | 450 kts | 115° |
| 2026-05-07 19:10 | 51.24506 | 6.35118 | 33073 ft | 450 kts | 115° |
| 2026-05-07 19:10 | 51.21917 | 6.44213 | 33073 ft | 450 kts | 115° |
| 2026-05-07 19:11 | 51.19318 | 6.53294 | 33073 ft | 450 kts | 115° |
| 2026-05-07 19:11 | 51.16708 | 6.62370 | 33072 ft | 451 kts | 115° |
| 2026-05-07 19:12 | 51.14095 | 6.71444 | 33073 ft | 450 kts | 115° |
| 2026-05-07 19:12 | 51.11491 | 6.80454 | 33073 ft | 450 kts | 115° |
| 2026-05-07 19:13 | 51.08865 | 6.89502 | 33073 ft | 450 kts | 115° |
| 2026-05-07 19:13 | 51.06231 | 6.98540 | 33073 ft | 450 kts | 115° |
| 2026-05-07 19:14 | 51.03587 | 7.07572 | 33073 ft | 451 kts | 115° |
| 2026-05-07 19:14 | 51.00933 | 7.16607 | 33073 ft | 450 kts | 115° |
| 2026-05-07 19:15 | 50.98277 | 7.25612 | 33073 ft | 450 kts | 115° |
| 2026-05-07 19:15 | 50.95610 | 7.34624 | 33073 ft | 451 kts | 115° |
| 2026-05-07 19:16 | 50.92957 | 7.43563 | 33073 ft | 451 kts | 115° |
| 2026-05-07 19:16 | 50.90354 | 7.52304 | 33073 ft | 451 kts | 115° |
| 2026-05-07 19:17 | 50.87666 | 7.61286 | 33072 ft | 451 kts | 115° |
| 2026-05-07 19:17 | 50.84937 | 7.70226 | 33070 ft | 451 kts | 120° |
| 2026-05-07 19:18 | 50.81179 | 7.78137 | 33075 ft | 450 kts | 134° |
| 2026-05-07 19:18 | 50.76715 | 7.85096 | 33073 ft | 452 kts | 137° |
| 2026-05-07 19:19 | 50.72108 | 7.91864 | 33072 ft | 452 kts | 137° |
| 2026-05-07 19:19 | 50.67499 | 7.98605 | 33073 ft | 452 kts | 137° |
| 2026-05-07 19:20 | 50.62898 | 8.05371 | 33073 ft | 452 kts | 137° |
| 2026-05-07 19:20 | 50.58595 | 8.12594 | 33073 ft | 453 kts | 130° |
| 2026-05-07 19:21 | 50.54615 | 8.20271 | 33073 ft | 453 kts | 129° |
| 2026-05-07 19:21 | 50.50683 | 8.28031 | 33073 ft | 453 kts | 129° |
| 2026-05-07 19:22 | 50.46748 | 8.35782 | 33073 ft | 453 kts | 129° |
| 2026-05-07 19:22 | 50.42825 | 8.43454 | 33073 ft | 453 kts | 129° |
| 2026-05-07 19:23 | 50.38866 | 8.51161 | 33073 ft | 453 kts | 129° |
| 2026-05-07 19:23 | 50.34729 | 8.58617 | 33073 ft | 453 kts | 133° |
| 2026-05-07 19:24 | 50.30403 | 8.65787 | 33072 ft | 453 kts | 134° |
| 2026-05-07 19:24 | 50.26052 | 8.72937 | 33073 ft | 453 kts | 134° |
| 2026-05-07 19:25 | 50.21727 | 8.80097 | 33073 ft | 453 kts | 134° |
| 2026-05-07 19:25 | 50.17407 | 8.87269 | 33072 ft | 453 kts | 134° |
| 2026-05-07 19:26 | 50.13112 | 8.94390 | 33073 ft | 453 kts | 134° |
| 2026-05-07 19:26 | 50.08782 | 9.01545 | 33072 ft | 453 kts | 134° |
| 2026-05-07 19:27 | 50.04453 | 9.08676 | 33074 ft | 453 kts | 134° |
| 2026-05-07 19:27 | 50.00111 | 9.15809 | 33073 ft | 453 kts | 134° |
| 2026-05-07 19:28 | 49.95765 | 9.22930 | 33072 ft | 454 kts | 134° |
| 2026-05-07 19:28 | 49.91407 | 9.30049 | 33073 ft | 455 kts | 134° |
| 2026-05-07 19:29 | 49.87075 | 9.37108 | 33073 ft | 455 kts | 134° |
| 2026-05-07 19:29 | 49.82701 | 9.44213 | 33064 ft | 455 kts | 134° |
| 2026-05-07 19:30 | 49.78338 | 9.51282 | 33065 ft | 455 kts | 134° |
| 2026-05-07 19:30 | 49.73955 | 9.58362 | 33064 ft | 455 kts | 134° |
| 2026-05-07 19:31 | 49.69605 | 9.65367 | 33058 ft | 454 kts | 134° |
| 2026-05-07 19:31 | 49.65225 | 9.72402 | 33053 ft | 454 kts | 134° |
| 2026-05-07 19:32 | 49.60833 | 9.79440 | 33054 ft | 454 kts | 134° |
| 2026-05-07 19:32 | 49.56443 | 9.86454 | 33054 ft | 454 kts | 135° |
| 2026-05-07 19:33 | 49.52044 | 9.93462 | 33055 ft | 455 kts | 135° |
| 2026-05-07 19:33 | 49.47670 | 10.00414 | 33053 ft | 454 kts | 135° |
| 2026-05-07 19:34 | 49.43261 | 10.07395 | 33054 ft | 455 kts | 135° |
| 2026-05-07 19:34 | 49.38845 | 10.14370 | 33054 ft | 455 kts | 135° |
| 2026-05-07 19:35 | 49.34430 | 10.21331 | 33055 ft | 455 kts | 135° |
| 2026-05-07 19:35 | 49.30007 | 10.28284 | 33072 ft | 455 kts | 135° |
| 2026-05-07 19:36 | 49.25575 | 10.35214 | 33071 ft | 455 kts | 137° |
| 2026-05-07 19:36 | 49.20589 | 10.41022 | 33074 ft | 453 kts | 148° |
| 2026-05-07 19:37 | 49.15220 | 10.46076 | 33072 ft | 453 kts | 150° |
| 2026-05-07 19:37 | 49.09778 | 10.50972 | 33072 ft | 453 kts | 150° |
| 2026-05-07 19:38 | 49.04338 | 10.55856 | 33073 ft | 453 kts | 150° |
| 2026-05-07 19:38 | 48.98906 | 10.60754 | 33073 ft | 454 kts | 150° |
| 2026-05-07 19:39 | 48.93502 | 10.65633 | 33072 ft | 454 kts | 150° |
| 2026-05-07 19:39 | 48.88952 | 10.69731 | 33073 ft | 454 kts | 150° |
| 2026-05-07 19:40 | 48.82656 | 10.75535 | 33071 ft | 455 kts | 145° |
| 2026-05-07 19:40 | 48.77984 | 10.82000 | 33074 ft | 456 kts | 135° |
| 2026-05-07 19:41 | 48.73673 | 10.89098 | 33073 ft | 457 kts | 133° |
| 2026-05-07 19:41 | 48.69463 | 10.96238 | 33073 ft | 457 kts | 133° |
| 2026-05-07 19:42 | 48.65210 | 11.03406 | 33073 ft | 457 kts | 133° |
| 2026-05-07 19:42 | 48.60936 | 11.10543 | 33071 ft | 457 kts | 133° |
| 2026-05-07 19:43 | 48.56655 | 11.17651 | 33073 ft | 457 kts | 134° |
| 2026-05-07 19:43 | 48.52364 | 11.24755 | 33073 ft | 457 kts | 134° |
| 2026-05-07 19:44 | 48.48068 | 11.31850 | 33073 ft | 457 kts | 134° |
| 2026-05-07 19:44 | 48.43767 | 11.38936 | 33073 ft | 458 kts | 134° |
| 2026-05-07 19:45 | 48.40191 | 11.44813 | 33073 ft | 458 kts | 134° |
| 2026-05-07 19:45 | 48.35175 | 11.53032 | 33073 ft | 458 kts | 134° |
| 2026-05-07 19:46 | 48.31592 | 11.58888 | 33073 ft | 458 kts | 134° |
| 2026-05-07 19:46 | 48.27272 | 11.65932 | 33073 ft | 458 kts | 134° |
| 2026-05-07 19:47 | 48.22761 | 11.72649 | 33073 ft | 457 kts | 139° |
| 2026-05-07 19:47 | 48.18048 | 11.79040 | 33073 ft | 457 kts | 140° |
| 2026-05-07 19:48 | 48.13317 | 11.85407 | 33073 ft | 457 kts | 140° |
| 2026-05-07 19:48 | 48.08609 | 11.91802 | 33073 ft | 457 kts | 139° |
| 2026-05-07 19:49 | 48.03910 | 11.98212 | 33074 ft | 457 kts | 139° |
| 2026-05-07 19:49 | 47.99216 | 12.04606 | 33073 ft | 457 kts | 139° |
| 2026-05-07 19:50 | 47.94511 | 12.10997 | 33073 ft | 457 kts | 139° |
| 2026-05-07 19:50 | 47.89804 | 12.17375 | 33072 ft | 457 kts | 139° |
| 2026-05-07 19:51 | 47.85095 | 12.23734 | 33073 ft | 457 kts | 140° |
| 2026-05-07 19:51 | 47.80377 | 12.30093 | 33072 ft | 457 kts | 140° |
| 2026-05-07 19:52 | 47.75685 | 12.36397 | 33073 ft | 457 kts | 140° |
| 2026-05-07 19:52 | 47.70964 | 12.42724 | 33074 ft | 457 kts | 140° |
| 2026-05-07 19:53 | 47.66241 | 12.49039 | 33074 ft | 457 kts | 140° |
| 2026-05-07 19:53 | 47.61343 | 12.54995 | 33076 ft | 455 kts | 147° |
| 2026-05-07 19:54 | 47.56107 | 12.60264 | 33075 ft | 454 kts | 149° |
| 2026-05-07 19:54 | 47.50813 | 12.65380 | 33072 ft | 454 kts | 149° |
| 2026-05-07 19:55 | 47.45507 | 12.70480 | 33072 ft | 454 kts | 149° |
| 2026-05-07 19:55 | 47.40210 | 12.75573 | 33074 ft | 455 kts | 149° |
| 2026-05-07 19:56 | 47.34943 | 12.80637 | 33080 ft | 454 kts | 149° |
| 2026-05-07 19:56 | 47.29653 | 12.85719 | 33082 ft | 454 kts | 149° |
| 2026-05-07 19:57 | 47.24356 | 12.90794 | 33083 ft | 454 kts | 149° |
| 2026-05-07 19:57 | 47.19061 | 12.95855 | 33081 ft | 454 kts | 149° |
| 2026-05-07 19:58 | 47.13771 | 13.00897 | 33083 ft | 454 kts | 149° |
| 2026-05-07 19:58 | 47.08471 | 13.05937 | 33082 ft | 454 kts | 150° |
| 2026-05-07 19:59 | 47.03161 | 13.10973 | 33079 ft | 454 kts | 150° |
| 2026-05-07 19:59 | 46.97853 | 13.15996 | 33071 ft | 454 kts | 150° |
| 2026-05-07 20:00 | 46.92538 | 13.21014 | 33077 ft | 454 kts | 150° |
| 2026-05-07 20:00 | 46.87259 | 13.25987 | 33048 ft | 454 kts | 150° |
| 2026-05-07 20:01 | 46.81932 | 13.30994 | 33048 ft | 455 kts | 150° |
| 2026-05-07 20:01 | 46.76609 | 13.35982 | 33049 ft | 455 kts | 150° |
| 2026-05-07 20:02 | 46.71278 | 13.40964 | 33039 ft | 455 kts | 150° |
| 2026-05-07 20:02 | 46.65939 | 13.45943 | 33037 ft | 455 kts | 150° |
| 2026-05-07 20:03 | 46.60588 | 13.50921 | 33039 ft | 455 kts | 150° |
| 2026-05-07 20:03 | 46.55279 | 13.55864 | 33046 ft | 457 kts | 149° |
| 2026-05-07 20:04 | 46.50154 | 13.61357 | 33048 ft | 458 kts | 146° |
| 2026-05-07 20:04 | 46.45086 | 13.67003 | 33044 ft | 459 kts | 146° |
| 2026-05-07 20:05 | 46.40036 | 13.72666 | 33045 ft | 459 kts | 146° |
| 2026-05-07 20:05 | 46.34972 | 13.78323 | 33054 ft | 459 kts | 146° |
| 2026-05-07 20:06 | 46.29902 | 13.83960 | 33055 ft | 459 kts | 146° |
| 2026-05-07 20:06 | 46.24824 | 13.89585 | 33054 ft | 460 kts | 146° |
| 2026-05-07 20:07 | 46.19742 | 13.95200 | 33052 ft | 460 kts | 146° |
| 2026-05-07 20:07 | 46.14659 | 14.00807 | 33038 ft | 460 kts | 146° |
| 2026-05-07 20:08 | 46.09594 | 14.06379 | 33047 ft | 460 kts | 146° |
| 2026-05-07 20:08 | 46.04504 | 14.11969 | 33042 ft | 460 kts | 146° |
| 2026-05-07 20:09 | 45.99409 | 14.17548 | 33040 ft | 460 kts | 146° |
| 2026-05-07 20:10 | 45.91750 | 14.25911 | 33047 ft | 460 kts | 146° |
| 2026-05-07 20:10 | 45.86645 | 14.31468 | 33043 ft | 460 kts | 146° |
| 2026-05-07 20:11 | 45.81545 | 14.37003 | 33046 ft | 459 kts | 146° |
| 2026-05-07 20:11 | 45.76480 | 14.42489 | 33044 ft | 459 kts | 146° |
| 2026-05-07 20:12 | 45.71379 | 14.48005 | 33047 ft | 459 kts | 146° |
| 2026-05-07 20:12 | 45.66275 | 14.53510 | 33047 ft | 459 kts | 146° |
| 2026-05-07 20:13 | 45.61168 | 14.59007 | 33057 ft | 459 kts | 147° |
| 2026-05-07 20:13 | 45.56060 | 14.64490 | 33065 ft | 459 kts | 147° |
| 2026-05-07 20:14 | 45.50951 | 14.69959 | 33064 ft | 459 kts | 147° |
| 2026-05-07 20:14 | 45.45829 | 14.75431 | 33072 ft | 459 kts | 147° |
| 2026-05-07 20:15 | 45.40751 | 14.80844 | 33072 ft | 459 kts | 147° |
| 2026-05-07 20:15 | 45.35636 | 14.86281 | 33073 ft | 459 kts | 147° |
| 2026-05-07 20:16 | 45.30519 | 14.91713 | 33073 ft | 458 kts | 147° |
| 2026-05-07 20:16 | 45.25404 | 14.97128 | 33072 ft | 458 kts | 147° |
| 2026-05-07 20:17 | 45.20288 | 15.02531 | 33071 ft | 458 kts | 147° |
| 2026-05-07 20:17 | 45.15174 | 15.07918 | 33074 ft | 458 kts | 147° |
| 2026-05-07 20:18 | 45.10055 | 15.13301 | 33065 ft | 458 kts | 147° |
| 2026-05-07 20:18 | 45.04967 | 15.18618 | 33061 ft | 458 kts | 147° |
| 2026-05-07 20:19 | 44.99815 | 15.23907 | 33061 ft | 457 kts | 147° |
| 2026-05-07 20:19 | 44.94661 | 15.29181 | 33060 ft | 457 kts | 147° |
| 2026-05-07 20:20 | 44.89504 | 15.34448 | 33063 ft | 457 kts | 147° |
| 2026-05-07 20:20 | 44.84346 | 15.39708 | 33065 ft | 457 kts | 147° |
| 2026-05-07 20:21 | 44.79183 | 15.44963 | 33073 ft | 457 kts | 147° |
| 2026-05-07 20:21 | 44.74049 | 15.50175 | 33067 ft | 457 kts | 147° |
| 2026-05-07 20:22 | 44.68879 | 15.55409 | 33064 ft | 457 kts | 147° |
| 2026-05-07 20:22 | 44.63707 | 15.60635 | 33063 ft | 458 kts | 147° |
| 2026-05-07 20:23 | 44.58527 | 15.65856 | 33065 ft | 458 kts | 147° |
| 2026-05-07 20:23 | 44.53382 | 15.71031 | 33072 ft | 458 kts | 147° |
| 2026-05-07 20:24 | 44.48201 | 15.76232 | 33074 ft | 458 kts | 147° |
| 2026-05-07 20:24 | 44.43022 | 15.81418 | 33072 ft | 458 kts | 147° |
| 2026-05-07 20:25 | 44.37836 | 15.86598 | 33071 ft | 458 kts | 147° |
| 2026-05-07 20:25 | 44.32648 | 15.91771 | 33073 ft | 458 kts | 147° |
| 2026-05-07 20:26 | 44.27460 | 15.96933 | 33073 ft | 458 kts | 147° |
| 2026-05-07 20:26 | 44.22257 | 16.02097 | 33073 ft | 458 kts | 147° |
| 2026-05-07 20:27 | 44.17061 | 16.07244 | 33075 ft | 458 kts | 147° |
| 2026-05-07 20:27 | 44.11898 | 16.12346 | 33073 ft | 458 kts | 148° |
| 2026-05-07 20:28 | 44.06690 | 16.17482 | 33073 ft | 458 kts | 148° |
| 2026-05-07 20:28 | 44.01482 | 16.22605 | 33074 ft | 458 kts | 148° |
| 2026-05-07 20:29 | 43.96276 | 16.27716 | 33074 ft | 458 kts | 148° |
| 2026-05-07 20:29 | 43.91945 | 16.31959 | 33074 ft | 458 kts | 148° |
| 2026-05-07 20:30 | 43.85881 | 16.37887 | 33073 ft | 459 kts | 148° |
| 2026-05-07 20:30 | 43.80660 | 16.42980 | 33071 ft | 459 kts | 148° |
| 2026-05-07 20:31 | 43.76316 | 16.47208 | 33059 ft | 458 kts | 148° |
| 2026-05-07 20:31 | 43.73742 | 16.49713 | 32946 ft | 446 kts | 148° |
| 2026-05-07 20:31 | 43.71199 | 16.52183 | 32236 ft | 448 kts | 148° |
| 2026-05-07 20:31 | 43.68635 | 16.54669 | 31413 ft | 452 kts | 148° |
| 2026-05-07 20:32 | 43.66049 | 16.57172 | 30687 ft | 454 kts | 148° |
| 2026-05-07 20:32 | 43.63461 | 16.59677 | 29966 ft | 455 kts | 148° |
| 2026-05-07 20:32 | 43.60861 | 16.62190 | 29186 ft | 456 kts | 148° |
| 2026-05-07 20:32 | 43.58259 | 16.64701 | 28415 ft | 457 kts | 148° |
| 2026-05-07 20:33 | 43.55647 | 16.67221 | 27667 ft | 458 kts | 148° |
| 2026-05-07 20:33 | 43.53066 | 16.69708 | 26834 ft | 459 kts | 148° |
| 2026-05-07 20:33 | 43.50444 | 16.72233 | 26003 ft | 460 kts | 148° |
| 2026-05-07 20:33 | 43.47813 | 16.74764 | 25150 ft | 461 kts | 148° |
| 2026-05-07 20:34 | 43.45178 | 16.77294 | 24423 ft | 459 kts | 148° |
| 2026-05-07 20:34 | 43.42583 | 16.79786 | 23880 ft | 452 kts | 148° |
| 2026-05-07 20:34 | 43.40018 | 16.82247 | 23302 ft | 446 kts | 148° |
| 2026-05-07 20:34 | 43.37490 | 16.84667 | 22714 ft | 440 kts | 148° |
| 2026-05-07 20:35 | 43.34992 | 16.87057 | 22113 ft | 436 kts | 148° |
| 2026-05-07 20:35 | 43.32512 | 16.89427 | 21511 ft | 431 kts | 148° |
| 2026-05-07 20:35 | 43.30061 | 16.91767 | 20904 ft | 427 kts | 147° |
| 2026-05-07 20:35 | 43.27634 | 16.94081 | 20328 ft | 422 kts | 147° |
| 2026-05-07 20:36 | 43.25237 | 16.96364 | 19748 ft | 417 kts | 147° |
| 2026-05-07 20:36 | 43.22891 | 16.98597 | 19177 ft | 413 kts | 147° |
| 2026-05-07 20:36 | 43.20538 | 17.00834 | 18595 ft | 410 kts | 147° |
| 2026-05-07 20:36 | 43.18200 | 17.03054 | 18010 ft | 408 kts | 147° |
| 2026-05-07 20:37 | 43.15876 | 17.05265 | 17447 ft | 405 kts | 146° |
| 2026-05-07 20:37 | 43.13722 | 17.07728 | 16885 ft | 403 kts | 135° |
| 2026-05-07 20:37 | 43.11982 | 17.10725 | 16313 ft | 401 kts | 127° |
| 2026-05-07 20:37 | 43.10416 | 17.13875 | 15725 ft | 398 kts | 125° |
| 2026-05-07 20:38 | 43.08891 | 17.17021 | 15177 ft | 394 kts | 125° |
| 2026-05-07 20:38 | 43.07405 | 17.20093 | 14642 ft | 388 kts | 126° |
| 2026-05-07 20:38 | 43.05908 | 17.23166 | 14067 ft | 388 kts | 125° |
| 2026-05-07 20:38 | 43.04403 | 17.26234 | 13515 ft | 386 kts | 125° |
| 2026-05-07 20:39 | 43.02915 | 17.29259 | 12976 ft | 381 kts | 125° |
| 2026-05-07 20:39 | 43.01442 | 17.32249 | 12430 ft | 377 kts | 125° |
| 2026-05-07 20:39 | 42.99981 | 17.35211 | 11882 ft | 374 kts | 125° |
| 2026-05-07 20:39 | 42.98554 | 17.38096 | 11732 ft | 357 kts | 125° |
| 2026-05-07 20:40 | 42.97202 | 17.40840 | 11654 ft | 339 kts | 125° |
| 2026-05-07 20:40 | 42.95913 | 17.43450 | 11521 ft | 324 kts | 126° |
| 2026-05-07 20:40 | 42.94678 | 17.45945 | 11370 ft | 311 kts | 126° |
| 2026-05-07 20:40 | 42.93491 | 17.48342 | 11233 ft | 299 kts | 126° |
| 2026-05-07 20:41 | 42.92347 | 17.50655 | 11096 ft | 289 kts | 126° |
| 2026-05-07 20:41 | 42.91240 | 17.52888 | 10922 ft | 281 kts | 126° |
| 2026-05-07 20:41 | 42.90055 | 17.54948 | 10778 ft | 281 kts | 134° |
| 2026-05-07 20:41 | 42.88715 | 17.56890 | 10411 ft | 281 kts | 136° |
| 2026-05-07 20:42 | 42.87356 | 17.58776 | 10085 ft | 277 kts | 136° |
| 2026-05-07 20:42 | 42.86010 | 17.60642 | 9765 ft | 275 kts | 136° |
| 2026-05-07 20:42 | 42.84668 | 17.62501 | 9458 ft | 274 kts | 136° |
| 2026-05-07 20:42 | 42.83335 | 17.64349 | 9142 ft | 272 kts | 136° |
| 2026-05-07 20:43 | 42.82008 | 17.66187 | 8820 ft | 271 kts | 136° |
| 2026-05-07 20:43 | 42.80692 | 17.68015 | 8511 ft | 268 kts | 136° |
| 2026-05-07 20:43 | 42.79387 | 17.69828 | 8201 ft | 267 kts | 136° |
| 2026-05-07 20:43 | 42.78114 | 17.71620 | 7895 ft | 266 kts | 133° |
| 2026-05-07 20:44 | 42.77039 | 17.73671 | 7594 ft | 266 kts | 122° |
| 2026-05-07 20:44 | 42.76141 | 17.75872 | 7294 ft | 265 kts | 120° |
| 2026-05-07 20:44 | 42.75284 | 17.78084 | 6988 ft | 264 kts | 119° |
| 2026-05-07 20:44 | 42.74429 | 17.80298 | 6689 ft | 263 kts | 120° |
| 2026-05-07 20:45 | 42.73586 | 17.82476 | 6473 ft | 256 kts | 120° |
| 2026-05-07 20:45 | 42.72758 | 17.84611 | 6057 ft | 254 kts | 119° |
| 2026-05-07 20:45 | 42.71944 | 17.86729 | 5776 ft | 249 kts | 120° |
| 2026-05-07 20:45 | 42.71150 | 17.88775 | 5506 ft | 245 kts | 120° |
| 2026-05-07 20:46 | 42.70341 | 17.90848 | 5151 ft | 251 kts | 119° |
| 2026-05-07 20:46 | 42.69521 | 17.92945 | 4809 ft | 252 kts | 119° |
| 2026-05-07 20:46 | 42.68694 | 17.95049 | 4340 ft | 252 kts | 119° |
| 2026-05-07 20:46 | 42.67879 | 17.97116 | 3947 ft | 248 kts | 119° |
| 2026-05-07 20:47 | 42.67085 | 17.99127 | 3817 ft | 232 kts | 119° |
| 2026-05-07 20:47 | 42.66360 | 18.00963 | 3813 ft | 209 kts | 118° |
| 2026-05-07 20:47 | 42.65703 | 18.02632 | 3717 ft | 191 kts | 119° |
| 2026-05-07 20:47 | 42.65105 | 18.04149 | 3524 ft | 174 kts | 119° |
| 2026-05-07 20:48 | 42.64546 | 18.05564 | 3192 ft | 165 kts | 118° |
| 2026-05-07 20:48 | 42.64005 | 18.06932 | 3022 ft | 166 kts | 119° |
| 2026-05-07 20:48 | 42.63453 | 18.08324 | 3001 ft | 168 kts | 119° |
| 2026-05-07 20:48 | 42.62902 | 18.09715 | 2978 ft | 168 kts | 118° |
| 2026-05-07 20:49 | 42.62351 | 18.11111 | 2787 ft | 167 kts | 118° |
| 2026-05-07 20:49 | 42.61802 | 18.12499 | 2552 ft | 164 kts | 118° |
| 2026-05-07 20:49 | 42.61294 | 18.13786 | 2342 ft | 151 kts | 118° |
| 2026-05-07 20:49 | 42.60804 | 18.15029 | 2147 ft | 149 kts | 118° |
| 2026-05-07 20:50 | 42.60312 | 18.16271 | 1947 ft | 150 kts | 118° |
| 2026-05-07 20:50 | 42.59820 | 18.17516 | 1749 ft | 149 kts | 118° |
| 2026-05-07 20:50 | 42.59330 | 18.18756 | 1550 ft | 149 kts | 118° |
| 2026-05-07 20:50 | 42.58840 | 18.19995 | 1351 ft | 149 kts | 117° |
| 2026-05-07 20:51 | 42.58351 | 18.21229 | 1146 ft | 148 kts | 118° |
| 2026-05-07 20:51 | 42.57850 | 18.22451 | 965 ft | 147 kts | 118° |
| 2026-05-07 20:51 | 42.57376 | 18.23668 | 764 ft | 146 kts | 116° |
| 2026-05-07 20:51 | 42.56899 | 18.24892 | 590 ft | 147 kts | 119° |
| 2026-05-07 20:52 | 42.56454 | 18.26023 | 538 ft | 110 kts | 118° |
| 2026-05-07 20:52 | 42.56234 | 18.26573 | 537 ft | 30 kts | 118° |
| 2026-05-07 20:52 | 42.56144 | 18.26586 | 537 ft | 8 kts | 236° |
| 2026-05-07 20:52 | 42.56117 | 18.26517 | 537 ft | 8 kts | 243° |
| 2026-05-07 20:53 | 42.56107 | 18.26438 | 537 ft | 11 kts | 283° |
| 2026-05-07 20:53 | 42.56137 | 18.26351 | 537 ft | 10 kts | 298° |
| 2026-05-07 20:53 | 42.56156 | 18.26291 | 537 ft | 5 kts | 266° |
| 2026-05-07 20:53 | 42.56139 | 18.26270 | 537 ft | 3 kts | 216° |
| 2026-05-07 20:54 | 42.56119 | 18.26256 | 537 ft | 3 kts | 207° |
| 2026-05-07 20:54 | 42.56114 | 18.26252 | 537 ft | 0 kts | 208° |